Time;durP1;ratioP1;P1;durP2;ratioP2;P2;SDS_P1;SDS_P2;PMS_P1;PMS_P2;Temp;Humidity;BMP_temperature;BMP_pressure;BME280_temperature;BME280_humidity;BME280_pressure;Samples;Min_cycle;Max_cycle;Signal;HPM_P1;HPM_P2
2022/07/20 06:03:44;;;;;;;;;;;;;;;29.57;55.85;98775.22;4853945;24;20373;-72
2022/07/20 06:06:14;;;;;;;;;;;;;;;29.85;55.22;98778.28;4847074;29;19972;-72
2022/07/20 06:08:41;;;;;;;;;;;;;;;30.06;53.89;98782.53;4847557;29;20005;-72
2022/07/20 06:11:20;;;;;;;;;;;;;;;30.07;55.12;98775.47;4847137;29;20333;-72
2022/07/20 06:13:47;;;;;;;;;;;;;;;30.14;53.79;98777.84;4847325;29;19954;-72
2022/07/20 06:16:15;;;;;;;;;;;;;;;30.06;53.03;98775.97;4847500;29;19956;-72
2022/07/20 06:18:42;;;;;;;;;;;;;;;30.13;54.90;98776.28;4847220;29;20309;-71
2022/07/20 06:21:09;;;;;;;;;;;;;;;30.06;56.98;98776.78;4846912;29;19963;-71
2022/07/20 06:23:36;;;;;;;;;;;;;;;30.10;55.56;98783.09;4847177;29;19951;-71
2022/07/20 06:26:04;;;;;;;;;;;;;;;30.09;59.48;98780.72;4829248;29;19990;-71
2022/07/20 06:28:31;;;;;;;;;;;;;;;30.11;56.08;98778.88;4827045;29;19965;-71
2022/07/20 06:30:58;;;;;;;;;;;;;;;30.09;54.88;98778.63;4841675;29;19949;-71
2022/07/20 06:33:26;;;;;;;;;;;;;;;29.74;55.97;98778.97;4845185;29;19952;-71
2022/07/20 06:35:53;;;;;;;;;;;;;;;29.58;56.50;98773.91;4846564;29;19967;-71
2022/07/20 06:38:20;;;;;;;;;;;;;;;29.41;58.33;98775.13;4830758;29;19949;-71
2022/07/20 06:40:48;;;;;;;;;;;;;;;29.69;56.78;98771.09;4846327;29;20018;-71
2022/07/20 06:43:15;;;;;;;;;;;;;;;29.63;61.48;98769.50;4846560;29;19947;-71
2022/07/20 06:45:42;;;;;;;;;;;;;;;29.57;58.82;98775.22;4846779;29;20372;-71
2022/07/20 06:48:09;;;;;;;;;;;;;;;29.65;56.83;98779.19;4846806;29;19961;-71
2022/07/20 06:50:37;;;;;;;;;;;;;;;29.75;60.38;98774.00;4846248;29;19960;-71
2022/07/20 06:53:04;;;;;;;;;;;;;;;29.60;56.36;98782.84;4846259;29;19950;-71
2022/07/20 06:55:31;;;;;;;;;;;;;;;29.56;59.22;98779.41;4846661;29;19961;-71
2022/07/20 06:57:58;;;;;;;;;;;;;;;29.44;59.66;98783.53;4846781;29;19949;-71
2022/07/20 07:00:26;;;;;;;;;;;;;;;29.50;58.03;98778.59;4846692;29;19947;-71
2022/07/20 07:02:53;;;;;;;;;;;;;;;29.44;56.84;98777.78;4846231;29;19999;-71
2022/07/20 07:05:20;;;;;;;;;;;;;;;29.48;58.20;98780.41;4845934;29;19978;-71
2022/07/20 07:07:48;;;;;;;;;;;;;;;29.61;nan;98777.88;4830240;29;19948;-71
2022/07/20 07:10:15;;;;;;;;;;;;;;;29.55;59.18;98789.34;4846466;29;19950;-71
2022/07/20 07:12:42;;;;;;;;;;;;;;;29.65;58.42;98781.28;4846377;29;19955;-71
2022/07/20 07:15:10;;;;;;;;;;;;;;;29.59;57.61;98784.13;4846234;29;19947;-71
2022/07/20 07:17:37;;;;;;;;;;;;;;;29.69;56.79;98785.50;4845779;29;20228;-71
2022/07/20 07:20:05;;;;;;;;;;;;;;;29.81;58.09;98786.38;4829847;29;19952;-71
2022/07/20 07:22:32;;;;;;;;;;;;;;;29.67;59.00;98776.56;4846316;29;19965;-71
2022/07/20 07:25:00;;;;;;;;;;;;;;;29.71;56.20;98780.00;4846398;29;20341;-71
2022/07/20 07:27:27;;;;;;;;;;;;;;;29.54;56.66;98772.59;4845667;29;19950;-71
2022/07/20 07:29:54;;;;;;;;;;;;;;;29.64;57.81;98773.94;4846244;29;19951;-71
2022/07/20 07:32:21;;;;;;;;;;;;;;;29.60;52.76;98779.16;4845829;29;19956;-71
2022/07/20 07:34:49;;;;;;;;;;;;;;;29.63;55.43;98769.50;4845650;29;19952;-71
2022/07/20 07:37:16;;;;;;;;;;;;;;;29.74;53.57;98769.53;4845773;29;19950;-71
2022/07/20 07:39:43;;;;;;;;;;;;;;;29.82;53.16;98768.56;4845634;29;19956;-71
2022/07/20 07:42:11;;;;;;;;;;;;;;;29.88;52.75;98778.00;4846217;29;19954;-71
2022/07/20 07:44:38;;;;;;;;;;;;;;;29.72;53.51;98772.16;4845703;29;20253;-71
2022/07/20 07:47:05;;;;;;;;;;;;;;;29.74;55.47;98773.19;4814636;29;19972;-71
2022/07/20 07:49:33;;;;;;;;;;;;;;;29.76;58.25;98769.81;4845784;29;19950;-71
2022/07/20 07:52:00;;;;;;;;;;;;;;;29.88;52.71;98774.34;4845444;29;19954;-71
2022/07/20 07:54:27;;;;;;;;;;;;;;;29.51;46.19;98770.72;4845910;29;19951;-72
2022/07/20 07:56:54;;;;;;;;;;;;;;;29.70;53.13;98772.66;4845856;29;20329;-71
2022/07/20 07:59:22;;;;;;;;;;;;;;;29.80;51.50;98771.19;4845597;29;19948;-71
2022/07/20 08:01:58;;;;;;;;;;;;;;;29.91;50.54;98765.44;4845414;29;20264;-71
2022/07/20 08:04:25;;;;;;;;;;;;;;;29.99;57.95;98768.63;4845622;29;19957;-71
2022/07/20 08:06:52;;;;;;;;;;;;;;;29.99;48.38;98774.41;4845249;29;19975;-71
2022/07/20 08:09:20;;;;;;;;;;;;;;;29.80;50.14;98781.91;4845510;29;19950;-72
2022/07/20 08:11:47;;;;;;;;;;;;;;;29.84;54.70;98773.81;4844926;29;19957;-72
2022/07/20 08:14:14;;;;;;;;;;;;;;;30.05;50.04;98778.09;4845028;29;19956;-72
2022/07/20 08:16:42;;;;;;;;;;;;;;;30.03;52.35;98780.69;4845264;29;20310;-72
2022/07/20 08:19:10;;;;;;;;;;;;;;;30.14;49.89;98782.84;4845489;29;19955;-71
2022/07/20 08:21:37;;;;;;;;;;;;;;;30.07;48.82;98774.69;4844803;29;19951;-71
2022/07/20 08:24:05;;;;;;;;;;;;;;;30.19;46.34;98777.09;4845318;29;19948;-71
2022/07/20 08:26:32;;;;;;;;;;;;;;;30.09;49.07;98778.63;4845232;29;19980;-71
2022/07/20 08:29:00;;;;;;;;;;;;;;;30.26;52.79;98779.47;4845166;29;19949;-71
2022/07/20 08:31:29;;;;;;;;;;;;;;;30.26;49.75;98776.59;4845322;29;19948;-71
2022/07/20 08:33:59;;;;;;;;;;;;;;;30.35;48.04;98776.38;4844884;29;19957;-71
2022/07/20 08:36:26;;;;;;;;;;;;;;;30.53;44.20;98772.19;4844677;29;19949;-72
2022/07/20 08:38:53;;;;;;;;;;;;;;;30.65;44.68;98776.69;4844382;29;19974;-71
2022/07/20 08:41:21;;;;;;;;;;;;;;;30.37;43.97;98773.75;4845075;29;19948;-71
2022/07/20 08:43:48;;;;;;;;;;;;;;;30.43;44.67;98773.75;4844925;29;19956;-71
2022/07/20 08:46:17;;;;;;;;;;;;;;;30.22;44.99;98781.81;4832160;29;19971;-71
2022/07/20 08:48:46;;;;;;;;;;;;;;;30.39;44.88;98767.47;4844849;29;20376;-71
2022/07/20 08:51:13;;;;;;;;;;;;;;;30.39;49.35;98776.13;4844652;29;20252;-72
2022/07/20 08:53:40;;;;;;;;;;;;;;;30.43;44.99;98771.66;4844739;29;20387;-71
2022/07/20 08:56:09;;;;;;;;;;;;;;;30.52;41.85;98773.50;4844372;29;19950;-71
2022/07/20 08:58:36;;;;;;;;;;;;;;;30.42;43.41;98775.09;4844812;29;19957;-72
2022/07/20 09:01:05;;;;;;;;;;;;;;;30.29;45.40;98777.63;4844802;29;19954;-72
2022/07/20 09:03:33;;;;;;;;;;;;;;;30.37;43.86;98773.75;4844954;29;19980;-72
2022/07/20 09:06:06;;;;;;;;;;;;;;;30.48;43.46;98765.13;4844584;29;20355;-72
2022/07/20 09:08:34;;;;;;;;;;;;;;;30.71;44.80;98768.03;4844430;29;20267;-72
2022/07/20 09:11:02;;;;;;;;;;;;;;;30.57;45.61;98774.84;4844476;29;19955;-71
2022/07/20 09:13:31;;;;;;;;;;;;;;;30.52;39.58;98761.97;4844196;29;19957;-71
2022/07/20 09:15:58;;;;;;;;;;;;;;;30.73;41.06;98771.19;4844388;29;19955;-71
2022/07/20 09:18:27;;;;;;;;;;;;;;;30.82;39.83;98773.81;4843931;29;19954;-71
2022/07/20 09:20:58;;;;;;;;;;;;;;;31.04;38.28;98765.97;4843531;29;19962;-71
2022/07/20 09:23:31;;;;;;;;;;;;;;;30.87;37.28;98770.13;4844146;29;19954;-71
2022/07/20 09:26:02;;;;;;;;;;;;;;;31.06;40.55;98763.31;4843541;29;19968;-71
2022/07/20 09:28:43;;;;;;;;;;;;;;;31.03;36.97;98760.72;4844480;29;19958;-71
2022/07/20 09:31:12;;;;;;;;;;;;;;;31.11;37.29;98771.19;4848003;29;19951;-71
2022/07/20 09:33:40;;;;;;;;;;;;;;;31.21;39.70;98760.16;4847145;29;19947;-71
2022/07/20 09:36:07;;;;;;;;;;;;;;;31.26;35.78;98761.47;4847598;29;19984;-71
2022/07/20 09:38:39;;;;;;;;;;;;;;;31.24;39.76;98769.88;4847514;29;19956;-71
2022/07/20 09:41:23;;;;;;;;;;;;;;;31.31;35.39;98773.00;4846244;29;19953;-71
2022/07/20 09:43:50;;;;;;;;;;;;;;;31.26;38.03;98762.25;4847110;29;20028;-71
2022/07/20 09:46:19;;;;;;;;;;;;;;;31.24;37.50;98758.31;4847399;29;20006;-71
2022/07/20 09:48:53;;;;;;;;;;;;;;;31.20;37.71;98762.25;4847757;29;19951;-71
2022/07/20 09:51:21;;;;;;;;;;;;;;;31.15;39.39;98753.63;4847179;29;20336;-71
2022/07/20 09:53:49;;;;;;;;;;;;;;;31.12;37.47;98748.88;4847000;29;19950;-71
2022/07/20 09:56:17;;;;;;;;;;;;;;;31.22;37.05;98747.28;4847413;29;20421;-71
2022/07/20 09:58:45;;;;;;;;;;;;;;;31.26;37.54;98752.78;4847624;29;19948;-72
2022/07/20 10:01:15;;;;;;;;;;;;;;;31.26;35.89;98744.91;4846832;29;20338;-72
2022/07/20 10:03:44;;;;;;;;;;;;;;;31.35;39.46;98743.84;4847212;29;19989;-72
2022/07/20 10:06:11;;;;;;;;;;;;;;;31.50;39.83;98739.38;4846847;29;20340;-72
2022/07/20 10:08:38;;;;;;;;;;;;;;;31.49;34.07;98740.69;4845663;29;19955;-72
2022/07/20 10:11:06;;;;;;;;;;;;;;;31.52;35.59;98738.84;4846459;29;19956;-72
2022/07/20 10:13:34;;;;;;;;;;;;;;;31.65;36.30;98739.06;4846812;29;19959;-71
2022/07/20 10:16:10;;;;;;;;;;;;;;;31.69;35.01;98730.91;4846714;29;19950;-72
2022/07/20 10:18:37;;;;;;;;;;;;;;;31.45;37.64;98737.28;4845233;29;19947;-71
2022/07/20 10:21:26;;;;;;;;;;;;;;;31.20;33.62;98733.34;4842036;29;19950;-72
2022/07/20 10:24:13;;;;;;;;;;;;;;;31.56;38.75;98740.16;4844829;29;20265;-72
2022/07/20 10:26:40;;;;;;;;;;;;;;;31.63;35.58;98739.59;4843963;29;20360;-71
2022/07/20 10:29:09;;;;;;;;;;;;;;;31.59;34.83;98739.09;4844675;29;19952;-71
2022/07/20 10:31:50;;;;;;;;;;;;;;;31.76;34.20;98736.13;4845193;29;20259;-71
2022/07/20 10:34:38;;;;;;;;;;;;;;;31.89;37.90;98732.66;4845208;29;19955;-71
2022/07/20 10:37:23;;;;;;;;;;;;;;;31.83;35.94;98735.56;4841960;29;19959;-71
2022/07/20 10:39:50;;;;;;;;;;;;;;;31.76;34.20;98739.81;4843102;29;19958;-71
2022/07/20 10:42:22;;;;;;;;;;;;;;;31.87;39.09;98738.16;4845313;29;20015;-72
2022/07/20 10:44:50;;;;;;;;;;;;;;;31.80;36.60;98734.53;4845667;29;20340;-72
2022/07/20 10:47:36;;;;;;;;;;;;;;;31.95;36.37;98739.19;4845135;29;19971;-72
2022/07/20 10:50:04;;;;;;;;;;;;;;;31.84;35.71;98746.59;4845868;29;19952;-71
2022/07/20 10:52:32;;;;;;;;;;;;;;;32.01;34.42;98740.00;4845830;29;19955;-71
2022/07/20 10:55:00;;;;;;;;;;;;;;;31.98;35.21;98729.47;4846196;29;19942;-71
2022/07/20 10:57:28;;;;;;;;;;;;;;;31.88;34.74;98728.97;4844717;29;19954;-71
2022/07/20 11:00:06;;;;;;;;;;;;;;;32.09;35.44;98727.31;4842959;29;19951;-72
2022/07/20 11:02:34;;;;;;;;;;;;;;;32.37;34.30;98730.03;4844905;29;19986;-72
2022/07/20 11:05:02;;;;;;;;;;;;;;;32.43;34.65;98711.31;4829952;29;20333;-72
2022/07/20 11:07:29;;;;;;;;;;;;;;;32.33;33.20;98715.06;4845769;29;20396;-72
2022/07/20 11:09:57;;;;;;;;;;;;;;;32.30;33.34;98707.47;4845810;29;19952;-72
2022/07/20 11:12:27;;;;;;;;;;;;;;;32.49;35.85;98711.28;4845611;29;19951;-72
2022/07/20 11:14:55;;;;;;;;;;;;;;;32.32;34.58;98716.41;4845500;29;19983;-72
2022/07/20 11:17:22;;;;;;;;;;;;;;;32.28;32.53;98713.78;4845397;29;19954;-69
2022/07/20 11:19:50;;;;;;;;;;;;;;;32.50;33.27;98709.94;4845471;29;19954;-69
2022/07/20 11:22:17;;;;;;;;;;;;;;;32.26;32.47;98710.63;4845508;29;20283;-70
2022/07/20 11:24:52;;;;;;;;;;;;;;;32.15;33.83;98702.03;4845038;29;19955;-70
2022/07/20 11:27:19;;;;;;;;;;;;;;;32.25;33.78;98699.59;4845036;29;19970;-70
2022/07/20 11:29:48;;;;;;;;;;;;;;;32.39;33.93;98701.34;4844703;29;19953;-70
2022/07/20 11:32:15;;;;;;;;;;;;;;;32.47;36.57;98711.03;4844484;29;19948;-69
2022/07/20 11:34:47;;;;;;;;;;;;;;;32.60;33.84;98698.84;4844734;29;19955;-69
2022/07/20 11:37:17;;;;;;;;;;;;;;;32.71;36.16;98690.84;4844626;29;19954;-69
2022/07/20 11:39:46;;;;;;;;;;;;;;;32.73;35.03;98694.00;4844806;29;19948;-69
2022/07/20 11:42:14;;;;;;;;;;;;;;;32.77;35.01;98690.81;4844374;29;19959;-69
2022/07/20 11:44:56;;;;;;;;;;;;;;;32.57;32.53;98685.44;4840338;29;20325;-68
2022/07/20 11:47:27;;;;;;;;;;;;;;;32.59;33.09;98680.69;4840286;29;19967;-69
2022/07/20 11:50:07;;;;;;;;;;;;;;;32.61;32.02;98677.25;4845407;29;20357;-69
2022/07/20 11:52:41;;;;;;;;;;;;;;;32.70;33.84;98680.59;4844161;29;19952;-69
2022/07/20 11:55:09;;;;;;;;;;;;;;;32.69;34.14;98673.25;4843797;29;19954;-68
2022/07/20 11:57:37;;;;;;;;;;;;;;;32.67;32.39;98675.84;4843404;29;20241;-69
2022/07/20 12:00:05;;;;;;;;;;;;;;;32.65;34.48;98663.25;4843072;29;20041;-68
2022/07/20 12:02:38;;;;;;;;;;;;;;;32.72;33.17;98662.69;4844575;29;19975;-69
2022/07/20 12:05:05;;;;;;;;;;;;;;;32.48;32.44;98663.38;4844376;29;19960;-69
2022/07/20 12:10:25;;;;;;;;;;;;;;;32.69;33.73;98655.84;4843059;29;19962;-69
2022/07/20 12:13:06;;;;;;;;;;;;;;;32.68;32.86;98659.28;4842411;29;19952;-69
2022/07/20 12:15:33;;;;;;;;;;;;;;;32.54;32.38;98660.47;4842284;29;19967;-68
2022/07/20 12:18:01;;;;;;;;;;;;;;;32.66;33.62;98664.81;4843244;29;20217;-69
2022/07/20 12:20:28;;;;;;;;;;;;;;;32.72;32.73;98654.75;4844481;29;19966;-69
2022/07/20 12:22:57;;;;;;;;;;;;;;;32.70;32.70;98657.41;4843345;29;20375;-69
2022/07/20 12:25:35;;;;;;;;;;;;;;;32.79;33.44;98657.06;4843684;29;19956;-69
2022/07/20 12:28:03;;;;;;;;;;;;;;;32.73;33.08;98661.34;4843652;29;19971;-69
2022/07/20 12:30:34;;;;;;;;;;;;;;;32.79;32.04;98662.84;4843298;29;19954;-69
2022/07/20 12:33:12;;;;;;;;;;;;;;;32.89;32.51;98655.38;4844315;29;19956;-69
2022/07/20 12:35:41;;;;;;;;;;;;;;;32.70;31.49;98654.50;4840880;29;20296;-69
2022/07/20 12:38:08;;;;;;;;;;;;;;;32.76;30.73;98654.47;4843776;29;19954;-68
2022/07/20 12:40:37;;;;;;;;;;;;;;;32.79;32.43;98659.94;4839780;29;19945;-68
2022/07/20 12:43:05;;;;;;;;;;;;;;;32.73;32.61;98650.53;4842221;29;19957;-69
2022/07/20 12:45:32;;;;;;;;;;;;;;;32.74;31.63;98649.22;4842485;29;19953;-69
2022/07/20 12:48:00;;;;;;;;;;;;;;;32.74;32.21;98646.34;4843663;29;19971;-69
2022/07/20 12:50:32;;;;;;;;;;;;;;;32.82;33.16;98644.38;4843718;29;19991;-69
2022/07/20 12:52:59;;;;;;;;;;;;;;;32.87;31.88;98639.88;4842887;29;19958;-69
2022/07/20 12:55:26;;;;;;;;;;;;;;;32.97;32.48;98636.06;4842938;29;19974;-69
2022/07/20 12:57:53;;;;;;;;;;;;;;;32.88;31.34;98633.53;4842478;29;20344;-69
2022/07/20 13:00:21;;;;;;;;;;;;;;;32.91;30.82;98626.66;4843245;29;19959;-69
2022/07/20 13:02:48;;;;;;;;;;;;;;;32.90;31.30;98630.09;4842852;29;19977;-69
2022/07/20 13:05:15;;;;;;;;;;;;;;;32.89;30.85;98629.31;4841883;29;19960;-69
2022/07/20 13:07:46;;;;;;;;;;;;;;;33.08;32.19;98632.31;4843009;29;19971;-68
2022/07/20 13:10:14;;;;;;;;;;;;;;;33.19;33.62;98629.28;4843266;29;19948;-69
2022/07/20 13:12:42;;;;;;;;;;;;;;;33.25;34.15;98626.31;4843383;29;19947;-69
2022/07/20 13:15:09;;;;;;;;;;;;;;;33.12;31.53;98620.41;4841805;29;19951;-69
2022/07/20 13:17:57;;;;;;;;;;;;;;;33.17;30.15;98613.75;4842436;29;20419;-69
2022/07/20 13:20:24;;;;;;;;;;;;;;;33.26;31.00;98622.09;4843462;29;20351;-69
2022/07/20 13:22:53;;;;;;;;;;;;;;;33.27;31.43;98606.25;4835908;29;19953;-69
2022/07/20 13:25:21;;;;;;;;;;;;;;;33.11;31.52;98604.34;4828942;29;19949;-69
2022/07/20 13:27:49;;;;;;;;;;;;;;;33.13;32.35;98598.78;4843409;29;19962;-69
2022/07/20 13:30:16;;;;;;;;;;;;;;;33.17;31.88;98602.16;4842904;29;19955;-69
2022/07/20 13:32:43;;;;;;;;;;;;;;;33.18;35.74;98595.03;4826175;29;19948;-69
2022/07/20 13:35:11;;;;;;;;;;;;;;;33.18;33.07;98595.03;4826860;29;19951;-69
2022/07/20 13:37:39;;;;;;;;;;;;;;;33.01;32.36;98595.22;4842986;29;19953;-69
2022/07/20 13:40:10;;;;;;;;;;;;;;;33.16;34.77;98589.03;4843672;29;19963;-69
2022/07/20 13:42:38;;;;;;;;;;;;;;;33.02;31.63;98577.31;4843084;29;19974;-69
2022/07/20 13:45:06;;;;;;;;;;;;;;;33.08;31.67;98583.03;4842860;29;20233;-69
2022/07/20 13:47:36;;;;;;;;;;;;;;;33.02;31.40;98583.09;4843313;29;19959;-69
2022/07/20 13:50:05;;;;;;;;;;;;;;;33.14;32.71;98582.97;4840030;29;19959;-69
2022/07/20 13:52:32;;;;;;;;;;;;;;;33.26;32.92;98576.47;4842663;29;19955;-69
2022/07/20 13:55:01;;;;;;;;;;;;;;;33.18;33.66;98578.44;4843206;29;19953;-69
2022/07/20 13:57:28;;;;;;;;;;;;;;;33.13;31.94;98575.63;4844554;29;19962;-69
2022/07/20 13:59:56;;;;;;;;;;;;;;;33.02;31.53;98577.31;4844112;29;20119;-69
2022/07/20 14:02:23;;;;;;;;;;;;;;;32.93;32.37;98571.06;4827634;29;19971;-69
2022/07/20 14:04:50;;;;;;;;;;;;;;;32.97;31.87;98559.94;4843940;29;19966;-69
2022/07/20 14:07:18;;;;;;;;;;;;;;;33.04;31.93;98565.16;4849498;29;19953;-69
2022/07/20 14:09:45;;;;;;;;;;;;;;;32.99;31.60;98560.97;4843616;29;20229;-69
2022/07/20 14:12:12;;;;;;;;;;;;;;;33.02;32.32;98559.09;4843007;29;19955;-69
2022/07/20 14:14:40;;;;;;;;;;;;;;;33.01;33.39;98558.31;4841001;29;19979;-69
2022/07/20 14:17:08;;;;;;;;;;;;;;;32.96;32.31;98567.84;4845406;29;19983;-69
2022/07/20 14:19:37;;;;;;;;;;;;;;;33.03;34.31;98552.03;4846012;29;19959;-69
2022/07/20 14:22:04;;;;;;;;;;;;;;;32.94;33.43;98552.38;4845817;29;19956;-69
2022/07/20 14:24:33;;;;;;;;;;;;;;;32.87;34.27;98550.06;4846278;29;19956;-69
2022/07/20 14:27:00;;;;;;;;;;;;;;;33.01;32.16;98549.63;4846150;29;19957;-69
2022/07/20 14:29:28;;;;;;;;;;;;;;;33.01;32.19;98546.72;4845704;29;19975;-69
2022/07/20 14:31:55;;;;;;;;;;;;;;;33.08;34.68;98537.47;4843885;29;19957;-69
2022/07/20 14:34:22;;;;;;;;;;;;;;;33.17;34.08;98541.28;4844374;29;19954;-69
2022/07/20 14:36:50;;;;;;;;;;;;;;;33.15;31.93;98541.84;4846420;29;19955;-69
2022/07/20 14:39:18;;;;;;;;;;;;;;;33.24;32.33;98537.78;4845813;29;19956;-70
2022/07/20 14:41:45;;;;;;;;;;;;;;;33.11;32.03;98538.50;4845816;29;19951;-68
2022/07/20 14:44:13;;;;;;;;;;;;;;;33.13;33.02;98530.03;4845569;29;20309;-68
2022/07/20 14:46:40;;;;;;;;;;;;;;;33.11;33.63;98529.81;4844295;29;19953;-69
2022/07/20 14:49:08;;;;;;;;;;;;;;;33.18;33.29;98529.19;4842991;29;19976;-69
2022/07/20 14:51:35;;;;;;;;;;;;;;;33.20;32.54;98525.72;4845365;29;19951;-69
2022/07/20 14:54:03;;;;;;;;;;;;;;;33.09;32.13;98517.94;4844372;29;19963;-69
2022/07/20 14:56:32;;;;;;;;;;;;;;;33.05;33.23;98517.47;4845791;29;19960;-69
2022/07/20 14:59:00;;;;;;;;;;;;;;;33.04;32.73;98515.91;4845726;29;19953;-69
2022/07/20 15:01:27;;;;;;;;;;;;;;;33.06;32.82;98511.13;4845382;29;20255;-69
2022/07/20 15:03:55;;;;;;;;;;;;;;;33.13;33.61;98512.63;4845207;29;20349;-69
2022/07/20 15:06:25;;;;;;;;;;;;;;;33.15;32.80;98503.38;4844473;29;20353;-68
2022/07/20 15:08:52;;;;;;;;;;;;;;;33.11;33.23;98497.13;4843166;29;19970;-68
2022/07/20 15:11:20;;;;;;;;;;;;;;;33.13;32.96;98495.25;4844854;29;19954;-68
2022/07/20 15:13:47;;;;;;;;;;;;;;;33.11;33.69;98500.03;4844737;29;19957;-68
2022/07/20 15:16:15;;;;;;;;;;;;;;;33.12;33.97;98484.19;4844543;29;19958;-68
2022/07/20 15:18:42;;;;;;;;;;;;;;;33.05;33.72;98488.50;4842611;29;19960;-68
2022/07/20 15:21:09;;;;;;;;;;;;;;;33.04;32.09;98481.91;4845652;29;19956;-68
2022/07/20 15:23:37;;;;;;;;;;;;;;;33.01;33.04;98470.63;4842424;29;19953;-68
2022/07/20 15:26:04;;;;;;;;;;;;;;;32.99;34.43;98479.06;4845403;29;19960;-68
2022/07/20 15:28:31;;;;;;;;;;;;;;;32.98;34.50;98480.41;4844578;29;19975;-68
2022/07/20 15:30:59;;;;;;;;;;;;;;;33.00;35.46;98466.94;4843690;29;19976;-68
2022/07/20 15:33:26;;;;;;;;;;;;;;;32.97;33.48;98468.03;4843134;29;20242;-68
2022/07/20 15:35:53;;;;;;;;;;;;;;;33.01;33.96;98456.91;4844767;29;19959;-69
2022/07/20 15:38:21;;;;;;;;;;;;;;;33.01;35.65;98471.38;4843952;29;19953;-69
2022/07/20 15:40:48;;;;;;;;;;;;;;;33.05;32.97;98466.09;4844392;29;19957;-69
2022/07/20 15:43:15;;;;;;;;;;;;;;;32.96;33.03;98462.78;4842259;29;19960;-69
2022/07/20 15:45:44;;;;;;;;;;;;;;;33.01;33.03;98468.50;4844316;29;19964;-69
2022/07/20 15:48:11;;;;;;;;;;;;;;;32.91;33.02;98458.63;4845423;29;20619;-69
2022/07/20 15:50:39;;;;;;;;;;;;;;;32.89;33.15;98455.47;4842085;29;19971;-69
2022/07/20 15:53:06;;;;;;;;;;;;;;;32.90;32.63;98465.75;4841201;29;19956;-68
2022/07/20 15:55:33;;;;;;;;;;;;;;;32.92;33.45;98460.19;4841814;29;19952;-69
2022/07/20 15:58:04;;;;;;;;;;;;;;;32.85;33.69;98449.22;4843262;29;19953;-69
2022/07/20 16:00:31;;;;;;;;;;;;;;;32.85;33.71;98462.91;4839727;29;19958;-69
2022/07/20 16:02:59;;;;;;;;;;;;;;;32.82;34.04;98455.31;4843186;29;19974;-69
2022/07/20 16:05:26;;;;;;;;;;;;;;;32.88;33.72;98456.03;4841299;29;19950;-69
2022/07/20 16:07:54;;;;;;;;;;;;;;;32.77;33.55;98456.94;4840679;29;19959;-69
2022/07/20 16:10:25;;;;;;;;;;;;;;;32.83;33.83;98445.31;4837581;29;19968;-69
2022/07/20 16:12:52;;;;;;;;;;;;;;;32.80;34.02;98444.28;4842080;29;20000;-69
2022/07/20 16:15:20;;;;;;;;;;;;;;;32.78;33.93;98435.34;4840749;29;20384;-69
2022/07/20 16:17:47;;;;;;;;;;;;;;;32.76;34.04;98435.13;4843263;29;19956;-68
2022/07/20 16:20:14;;;;;;;;;;;;;;;32.70;35.42;98431.50;4842219;29;20359;-68
2022/07/20 16:22:42;;;;;;;;;;;;;;;32.67;34.93;98434.72;4826187;29;20647;-68
2022/07/20 16:25:10;;;;;;;;;;;;;;;32.64;36.53;98432.91;4841738;29;19955;-68
2022/07/20 16:27:39;;;;;;;;;;;;;;;32.57;35.02;98431.44;4842328;29;20357;-68
2022/07/20 16:30:07;;;;;;;;;;;;;;;32.50;33.96;98428.31;4842020;29;19974;-68
2022/07/20 16:32:34;;;;;;;;;;;;;;;32.50;34.33;98429.09;4843836;29;19960;-68
2022/07/20 16:35:02;;;;;;;;;;;;;;;32.48;33.70;98414.38;4842054;29;20647;-68
2022/07/20 16:37:30;;;;;;;;;;;;;;;32.42;35.33;98423.16;4828017;29;19954;-68
2022/07/20 16:39:57;;;;;;;;;;;;;;;32.51;33.29;98412.53;4841258;29;19956;-68
2022/07/20 16:42:24;;;;;;;;;;;;;;;32.45;34.73;98415.50;4843813;29;20289;-68
2022/07/20 16:44:52;;;;;;;;;;;;;;;32.42;34.67;98414.47;4841834;29;19954;-68
2022/07/20 16:47:19;;;;;;;;;;;;;;;32.34;34.82;98404.03;4843803;29;19954;-68
2022/07/20 16:49:46;;;;;;;;;;;;;;;32.32;35.00;98412.47;4840465;29;19968;-68
2022/07/20 16:52:14;;;;;;;;;;;;;;;32.26;35.77;98400.16;4838770;29;19945;-68
2022/07/20 16:54:41;;;;;;;;;;;;;;;32.19;35.59;98403.66;4837424;29;19958;-68
2022/07/20 16:57:11;;;;;;;;;;;;;;;32.20;34.89;98402.34;4838374;29;19957;-68
2022/07/20 16:59:39;;;;;;;;;;;;;;;32.15;34.64;98403.97;4841617;29;19962;-69
2022/07/20 17:02:06;;;;;;;;;;;;;;;32.14;34.52;98404.50;4840455;29;19979;-69
2022/07/20 17:04:33;;;;;;;;;;;;;;;32.15;34.56;98401.09;4843702;29;19951;-69
2022/07/20 17:07:01;;;;;;;;;;;;;;;32.12;34.77;98396.38;4839391;29;19953;-69
2022/07/20 17:09:31;;;;;;;;;;;;;;;32.08;35.69;98398.00;4840729;29;19971;-68
2022/07/20 17:11:58;;;;;;;;;;;;;;;32.05;35.99;98401.97;4840717;29;20382;-68
2022/07/20 17:14:25;;;;;;;;;;;;;;;32.00;35.75;98394.16;4841280;29;19956;-68
2022/07/20 17:16:52;;;;;;;;;;;;;;;31.99;36.29;98404.13;4836705;29;19957;-68
2022/07/20 17:19:27;;;;;;;;;;;;;;;31.94;37.68;98396.28;4840605;29;19960;-68
2022/07/20 17:21:56;;;;;;;;;;;;;;;31.86;36.17;98393.22;4840174;29;19951;-68
2022/07/20 17:24:23;;;;;;;;;;;;;;;31.90;36.08;98392.91;4843461;29;19949;-69
2022/07/20 17:26:52;;;;;;;;;;;;;;;31.86;35.55;98387.44;4841476;29;20261;-68
2022/07/20 17:29:19;;;;;;;;;;;;;;;31.79;37.15;98388.03;4842873;29;20379;-68
2022/07/20 17:31:47;;;;;;;;;;;;;;;31.74;37.23;98386.72;4839004;29;19948;-69
2022/07/20 17:34:14;;;;;;;;;;;;;;;31.71;37.89;98393.63;4840838;29;19955;-69
2022/07/20 17:36:41;;;;;;;;;;;;;;;31.62;37.40;98393.19;4841288;29;19950;-69
2022/07/20 17:39:09;;;;;;;;;;;;;;;31.57;38.34;98391.13;4841488;29;19977;-69
2022/07/20 17:41:37;;;;;;;;;;;;;;;31.53;36.66;98400.06;4837910;29;19954;-69
2022/07/20 17:44:05;;;;;;;;;;;;;;;31.51;37.33;98399.84;4842629;29;19973;-71
2022/07/20 17:46:33;;;;;;;;;;;;;;;31.49;37.95;98407.47;4844076;29;19953;-68
2022/07/20 17:49:00;;;;;;;;;;;;;;;31.45;38.18;98401.22;4842042;29;20357;-68
2022/07/20 17:51:29;;;;;;;;;;;;;;;31.42;37.79;98399.34;4844405;29;19969;-68
2022/07/20 17:53:57;;;;;;;;;;;;;;;31.32;38.25;98396.03;4844881;29;19949;-68
2022/07/20 17:56:24;;;;;;;;;;;;;;;31.26;37.99;98397.34;4841982;29;19947;-68
2022/07/20 17:58:51;;;;;;;;;;;;;;;31.23;37.95;98402.09;4842425;29;19957;-68
2022/07/20 18:01:19;;;;;;;;;;;;;;;31.15;38.94;98398.25;4847113;29;19957;-68
2022/07/20 18:03:46;;;;;;;;;;;;;;;31.15;38.67;98409.81;4846916;29;20258;-68
2022/07/20 18:06:27;;;;;;;;;;;;;;;31.08;39.91;98410.38;4843103;29;19952;-68
2022/07/20 18:08:54;;;;;;;;;;;;;;;31.03;39.40;98403.28;4843160;29;19949;-69
2022/07/20 18:11:22;;;;;;;;;;;;;;;30.93;40.85;98398.38;4840770;29;20368;-69
2022/07/20 18:13:49;;;;;;;;;;;;;;;30.88;41.55;98393.41;4846955;29;19975;-69
2022/07/20 18:16:16;;;;;;;;;;;;;;;30.81;39.18;98391.84;4845028;29;19958;-71
2022/07/20 18:18:45;;;;;;;;;;;;;;;30.79;40.82;98390.84;4827251;29;20246;-70
2022/07/20 18:21:12;;;;;;;;;;;;;;;30.74;39.56;98397.41;4845238;29;19954;-69
2022/07/20 18:23:40;;;;;;;;;;;;;;;30.65;40.69;98395.59;4846982;29;19962;-69
2022/07/20 18:26:07;;;;;;;;;;;;;;;30.62;40.44;98393.00;4846684;29;19959;-68
2022/07/20 18:28:34;;;;;;;;;;;;;;;30.59;40.82;98400.63;4846512;29;20033;-69
2022/07/20 18:31:03;;;;;;;;;;;;;;;30.51;41.65;98403.28;4843230;29;20491;-68
2022/07/20 18:33:31;;;;;;;;;;;;;;;30.41;42.67;98404.91;4845063;29;19961;-68
2022/07/20 18:35:58;;;;;;;;;;;;;;;30.45;40.83;98405.41;4844548;29;19958;-68
2022/07/20 18:38:25;;;;;;;;;;;;;;;30.36;41.22;98399.16;4848717;29;19950;-71
2022/07/20 18:40:54;;;;;;;;;;;;;;;30.29;42.19;98405.44;4843731;29;20240;-71
2022/07/20 18:43:25;;;;;;;;;;;;;;;30.23;42.10;98398.88;4837799;29;19950;-71
2022/07/20 18:46:02;;;;;;;;;;;;;;;30.18;42.56;98412.00;4829858;29;19955;-72
2022/07/20 18:48:33;;;;;;;;;;;;;;;30.10;42.48;98411.00;4845810;29;19956;-71
2022/07/20 18:51:00;;;;;;;;;;;;;;;30.03;42.87;98411.53;4845420;29;19973;-73
2022/07/20 18:53:28;;;;;;;;;;;;;;;30.00;43.14;98415.47;4849583;29;19972;-71
2022/07/20 18:55:56;;;;;;;;;;;;;;;29.95;43.31;98419.16;4844632;29;20367;-71
2022/07/20 18:58:25;;;;;;;;;;;;;;;29.94;43.09;98420.47;4846609;29;19953;-71
2022/07/20 19:00:53;;;;;;;;;;;;;;;29.90;43.34;98419.94;4843564;29;19988;-71